Time;durP1;ratioP1;P1;durP2;ratioP2;P2;SDS_P1;SDS_P2;PMS_P1;PMS_P2;Temp;Humidity;BMP_temperature;BMP_pressure;BME280_temperature;BME280_humidity;BME280_pressure;Samples;Min_cycle;Max_cycle;Signal;HPM_P1;HPM_P2
2021/08/13 00:00:18;;;;;;;1999.90;999.90;;;;;;;18.96;39.25;101462.44;4983463;28;99077;-74
2021/08/13 00:02:46;;;;;;;1999.90;999.90;;;;;;;18.93;39.08;101459.75;4967458;28;99303;-74
2021/08/13 00:05:14;;;;;;;1999.90;999.90;;;;;;;18.89;38.94;101464.28;4984980;28;96848;-74
2021/08/13 00:07:43;;;;;;;1999.90;999.90;;;;;;;18.84;39.00;101471.44;4982298;28;98803;-73
2021/08/13 00:10:11;;;;;;;1999.90;999.90;;;;;;;18.81;39.06;101473.25;4984011;28;97663;-73
2021/08/13 00:12:39;;;;;;;1999.90;999.90;;;;;;;18.80;39.38;101471.47;4985119;28;97823;-74
2021/08/13 00:15:09;;;;;;;1999.90;999.90;;;;;;;18.77;39.09;101476.84;4983143;28;97777;-73
2021/08/13 00:17:37;;;;;;;1999.90;999.90;;;;;;;18.73;39.39;101472.38;4982393;28;96939;-73
2021/08/13 00:20:06;;;;;;;1999.90;999.90;;;;;;;18.69;39.58;101466.09;4984685;28;97827;-74
2021/08/13 00:22:34;;;;;;;1999.90;999.90;;;;;;;18.69;39.70;101467.88;4981878;28;97884;-74
2021/08/13 00:25:03;;;;;;;1999.90;999.90;;;;;;;18.67;40.01;101467.88;4982578;28;96973;-74
2021/08/13 00:27:31;;;;;;;1999.90;999.90;;;;;;;18.65;40.16;101466.97;4985607;28;97362;-74
2021/08/13 00:29:59;;;;;;;1999.90;999.90;;;;;;;18.64;39.98;101466.97;4983574;28;100013;-74
2021/08/13 00:32:28;;;;;;;1999.90;999.90;;;;;;;18.60;40.27;101468.78;4966301;28;100133;-73
2021/08/13 00:34:56;;;;;;;1999.90;999.90;;;;;;;18.60;40.26;101467.88;4984418;28;97628;-75
2021/08/13 00:37:24;;;;;;;1999.90;999.90;;;;;;;18.55;40.23;101473.25;4984028;28;97965;-74
2021/08/13 00:39:53;;;;;;;1999.90;999.90;;;;;;;18.53;40.47;101479.56;4986247;28;97647;-73
2021/08/13 00:42:22;;;;;;;1999.90;999.90;;;;;;;18.50;40.18;101468.75;4983888;28;98074;-74
2021/08/13 00:44:50;;;;;;;1999.90;999.90;;;;;;;18.47;40.47;101469.69;4985057;28;97111;-74
2021/08/13 00:47:21;;;;;;;1999.90;999.90;;;;;;;18.44;40.51;101472.34;4983771;28;97280;-74
2021/08/13 00:50:08;;;;;;;1999.90;999.90;;;;;;;18.42;40.77;101475.97;4998236;28;97762;-74
2021/08/13 00:52:43;;;;;;;1999.90;999.90;;;;;;;18.39;40.63;101465.16;4982601;28;98167;-74
2021/08/13 00:55:12;;;;;;;1999.90;999.90;;;;;;;18.36;41.16;101471.47;4998691;28;97365;-73
2021/08/13 00:58:02;;;;;;;1999.90;999.90;;;;;;;18.32;41.19;101469.66;4983774;28;97853;-73
2021/08/13 01:00:45;;;;;;;1999.90;999.90;;;;;;;18.31;41.41;101475.06;4981359;28;98760;-73
2021/08/13 01:03:14;;;;;;;1999.90;999.90;;;;;;;18.28;41.26;101473.25;4983749;28;99375;-74
2021/08/13 01:05:47;;;;;;;1999.90;999.90;;;;;;;18.27;41.11;101475.97;5001295;28;97730;-75
2021/08/13 01:08:15;;;;;;;1999.90;999.90;;;;;;;18.24;41.19;101466.06;4966736;28;97661;-74
2021/08/13 01:10:47;;;;;;;1999.90;999.90;;;;;;;18.22;41.49;101467.88;4965555;28;97887;-74
2021/08/13 01:13:24;;;;;;;1999.90;999.90;;;;;;;18.20;41.33;101464.28;4983878;28;97741;-73
2021/08/13 01:15:56;;;;;;;1999.90;999.90;;;;;;;18.20;41.30;101460.69;4966762;28;97016;-72
2021/08/13 01:18:27;;;;;;;1999.90;999.90;;;;;;;18.18;41.51;101460.69;4984195;28;98387;-73
2021/08/13 01:21:17;;;;;;;1999.90;999.90;;;;;;;18.16;41.54;101465.19;4966373;28;98396;-73
2021/08/13 01:23:54;;;;;;;1999.90;999.90;;;;;;;18.15;41.48;101460.66;4996608;28;98884;-73
2021/08/13 01:26:27;;;;;;;1999.90;999.90;;;;;;;18.12;41.53;101459.78;4982859;28;96729;-74
2021/08/13 01:29:02;;;;;;;1999.90;999.90;;;;;;;18.12;41.77;101465.16;4983087;28;96936;-75
2021/08/13 01:31:38;;;;;;;1999.90;999.90;;;;;;;18.10;41.72;101461.56;4979184;28;98882;-74
2021/08/13 01:34:11;;;;;;;1999.90;999.90;;;;;;;18.07;41.91;101457.09;4964517;28;102937;-74
2021/08/13 01:36:39;;;;;;;1999.90;999.90;;;;;;;18.06;41.95;101457.97;4981990;28;97118;-74
2021/08/13 01:39:08;;;;;;;1999.90;999.90;;;;;;;18.06;42.10;101454.41;4982516;28;97611;-74
2021/08/13 01:41:38;;;;;;;1999.90;999.90;;;;;;;18.06;42.17;101454.41;4982306;28;99465;-74
2021/08/13 01:44:10;;;;;;;1999.90;999.90;;;;;;;18.03;42.41;101456.16;4981707;28;97101;-74
2021/08/13 01:46:39;;;;;;;1999.90;999.90;;;;;;;18.03;42.54;101463.31;4982143;28;97688;-73
2021/08/13 01:49:08;;;;;;;1999.90;999.90;;;;;;;18.02;42.53;101457.03;4984928;28;97561;-74
2021/08/13 01:51:37;;;;;;;1999.90;999.90;;;;;;;18.00;42.71;101466.03;4981230;28;100089;-74
2021/08/13 01:54:06;;;;;;;1999.90;999.90;;;;;;;17.97;42.87;101464.22;4965730;28;98980;-74
2021/08/13 01:56:40;;;;;;;1999.90;999.90;;;;;;;17.96;42.84;101465.13;4996751;28;97635;-74
2021/08/13 01:59:08;;;;;;;1999.90;999.90;;;;;;;17.97;43.01;101466.91;4984424;28;96844;-74
2021/08/13 02:01:37;;;;;;;1999.90;999.90;;;;;;;17.98;43.20;101473.22;4978445;28;97976;-74
2021/08/13 02:04:06;;;;;;;1999.90;999.90;;;;;;;17.98;43.27;101478.59;4982202;28;98978;-74
2021/08/13 02:06:36;;;;;;;1999.90;999.90;;;;;;;17.97;43.24;101483.06;4996951;28;97258;-73
2021/08/13 02:09:13;;;;;;;1999.90;999.90;;;;;;;17.95;43.14;101468.69;4983283;28;97718;-74
2021/08/13 02:11:42;;;;;;;1999.90;999.90;;;;;;;17.88;43.74;101471.38;4995857;28;98356;-73
2021/08/13 02:14:14;;;;;;;1999.90;999.90;;;;;;;17.85;43.55;101472.28;4981043;28;100753;-74
2021/08/13 02:16:45;;;;;;;1999.90;999.90;;;;;;;17.87;43.63;101486.66;4979091;28;97174;-74
2021/08/13 02:19:16;;;;;;;1999.90;999.90;;;;;;;17.89;43.80;101484.84;4975289;28;97159;-74
2021/08/13 02:21:47;;;;;;;1999.90;999.90;;;;;;;17.91;43.96;101482.19;4981738;28;96916;-73
2021/08/13 02:24:17;;;;;;;1999.90;999.90;;;;;;;17.91;44.23;101483.06;4978884;28;100956;-74
2021/08/13 02:26:49;;;;;;;1999.90;999.90;;;;;;;17.93;44.57;101475.88;4982074;28;97996;-73
2021/08/13 02:29:18;;;;;;;1999.90;999.90;;;;;;;17.94;44.59;101469.63;4998194;28;97431;-73
2021/08/13 02:31:46;;;;;;;1999.90;999.90;;;;;;;17.95;44.62;101463.31;4965238;28;100648;-74
2021/08/13 02:34:13;;;;;;;1999.90;999.90;;;;;;;17.95;44.74;101459.72;4983768;28;100285;-74
2021/08/13 02:36:53;;;;;;;1999.90;999.90;;;;;;;17.95;44.62;101465.09;4984557;28;98207;-73
2021/08/13 02:39:26;;;;;;;1999.90;999.90;;;;;;;17.95;44.63;101463.31;4980759;28;97787;-74
2021/08/13 02:41:56;;;;;;;1999.90;999.90;;;;;;;17.92;44.67;101460.63;4982714;28;97951;-74
2021/08/13 02:44:24;;;;;;;1999.90;999.90;;;;;;;17.91;44.65;101471.41;4968297;28;101706;-73
2021/08/13 02:46:54;;;;;;;1999.90;999.90;;;;;;;17.89;44.58;101474.06;4984066;28;97107;-74
2021/08/13 02:49:26;;;;;;;1999.90;999.90;;;;;;;17.88;44.70;101472.28;4968946;28;97090;-72
2021/08/13 02:51:58;;;;;;;1999.90;999.90;;;;;;;17.86;44.72;101471.38;4998965;28;97684;-74
2021/08/13 02:54:30;;;;;;;1999.90;999.90;;;;;;;17.86;44.75;101468.69;4983577;28;96880;-74
2021/08/13 02:56:59;;;;;;;1999.90;999.90;;;;;;;17.85;44.85;101471.38;4983014;28;96984;-74
2021/08/13 02:59:30;;;;;;;1999.90;999.90;;;;;;;17.83;44.91;101471.38;5001415;28;97373;-74
2021/08/13 03:02:01;;;;;;;1999.90;999.90;;;;;;;17.83;44.97;101478.56;4968052;28;100057;-73
2021/08/13 03:04:32;;;;;;;1999.90;999.90;;;;;;;17.85;45.22;101485.75;4985036;28;99923;-73
2021/08/13 03:07:02;;;;;;;1999.90;999.90;;;;;;;17.85;45.47;101487.53;4986238;28;97063;-73
2021/08/13 03:09:31;;;;;;;1999.90;999.90;;;;;;;17.81;45.74;101485.72;4998775;28;98659;-74
2021/08/13 03:11:59;;;;;;;1999.90;999.90;;;;;;;17.80;45.75;101487.50;5001454;28;98871;-74
2021/08/13 03:14:27;;;;;;;1999.90;999.90;;;;;;;17.79;46.19;101476.75;5001272;28;97675;-74
2021/08/13 03:16:56;;;;;;;1999.90;999.90;;;;;;;17.79;46.12;101482.13;4985528;28;97083;-73
2021/08/13 03:19:25;;;;;;;1999.90;999.90;;;;;;;17.78;46.07;101472.25;4984212;28;97179;-74
2021/08/13 03:21:53;;;;;;;1999.90;999.90;;;;;;;17.80;46.13;101476.75;5000934;28;97769;-74
2021/08/13 03:24:23;;;;;;;1999.90;999.90;;;;;;;17.80;45.89;101476.75;4964981;28;102681;-74
2021/08/13 03:26:52;;;;;;;1999.90;999.90;;;;;;;17.78;45.80;101481.22;4983429;28;98165;-74
2021/08/13 03:29:21;;;;;;;1999.90;999.90;;;;;;;17.78;45.82;101483.03;4984283;28;96919;-74
2021/08/13 03:31:58;;;;;;;1999.90;999.90;;;;;;;17.77;45.78;101483.91;4983817;28;99776;-74
2021/08/13 03:34:26;;;;;;;1999.90;999.90;;;;;;;17.77;45.85;101489.28;4984996;28;100991;-74
2021/08/13 03:36:57;;;;;;;1999.90;999.90;;;;;;;17.76;46.13;101487.50;4983339;28;98014;-73
2021/08/13 03:39:26;;;;;;;1999.90;999.90;;;;;;;17.73;46.32;101484.81;4983331;28;97040;-73
2021/08/13 03:41:55;;;;;;;1999.90;999.90;;;;;;;17.73;46.50;101485.69;4996704;28;98984;-74
2021/08/13 03:44:24;;;;;;;1999.90;999.90;;;;;;;17.73;46.63;101484.81;4967536;28;100081;-74
2021/08/13 03:46:54;;;;;;;1999.90;999.90;;;;;;;17.71;46.84;101474.03;4982586;28;97064;-73
2021/08/13 03:49:22;;;;;;;1999.90;999.90;;;;;;;17.68;46.88;101474.03;5000962;28;97495;-74
2021/08/13 03:51:50;;;;;;;1999.90;999.90;;;;;;;17.68;46.81;101484.78;4983639;28;98937;-74
2021/08/13 03:54:17;;;;;;;1999.90;999.90;;;;;;;17.65;46.90;101487.50;4982167;28;99636;-75
2021/08/13 03:56:46;;;;;;;1999.90;999.90;;;;;;;17.61;46.95;101491.06;4998754;28;97548;-72
2021/08/13 03:59:14;;;;;;;1999.90;999.90;;;;;;;17.61;47.02;101488.38;4986213;28;97299;-74
2021/08/13 04:01:42;;;;;;;1999.90;999.90;;;;;;;17.60;47.03;101483.84;4980032;28;99755;-73
2021/08/13 04:04:10;;;;;;;1999.90;999.90;;;;;;;17.58;47.21;101476.69;4996463;28;98899;-74
2021/08/13 04:06:41;;;;;;;1999.90;999.90;;;;;;;17.57;47.02;101485.63;4965035;28;97781;-73
2021/08/13 04:09:09;;;;;;;1999.90;999.90;;;;;;;17.53;47.21;101482.03;4999637;28;97936;-74
2021/08/13 04:11:37;;;;;;;1999.90;999.90;;;;;;;17.53;47.09;101492.81;4967799;28;99600;-74
2021/08/13 04:14:06;;;;;;;1999.90;999.90;;;;;;;17.52;47.06;101493.72;4982848;28;98628;-74
2021/08/13 04:16:34;;;;;;;1999.90;999.90;;;;;;;17.47;47.29;101498.19;4985151;28;97222;-75
2021/08/13 04:19:03;;;;;;;1999.90;999.90;;;;;;;17.45;47.28;101497.28;4984313;28;97002;-74
2021/08/13 04:21:34;;;;;;;1999.90;999.90;;;;;;;17.42;47.46;101493.69;4965368;28;99408;-73
2021/08/13 04:24:02;;;;;;;1999.90;999.90;;;;;;;17.40;47.26;101485.56;4967323;28;99004;-74
2021/08/13 04:26:30;;;;;;;1999.90;999.90;;;;;;;17.39;47.19;101497.25;4983332;28;96940;-73
2021/08/13 04:28:58;;;;;;;1999.90;999.90;;;;;;;17.37;47.52;101492.69;4985717;28;97006;-74
2021/08/13 04:31:27;;;;;;;1999.90;999.90;;;;;;;17.36;47.34;101502.59;4983503;28;100438;-74
2021/08/13 04:33:55;;;;;;;1999.90;999.90;;;;;;;17.35;47.28;101502.56;4967244;28;100862;-73
2021/08/13 04:36:27;;;;;;;1999.90;999.90;;;;;;;17.33;47.08;101499.84;4967093;28;96812;-72
2021/08/13 04:38:55;;;;;;;1999.90;999.90;;;;;;;17.31;47.41;101493.56;4983990;28;97013;-73
2021/08/13 04:41:23;;;;;;;1999.90;999.90;;;;;;;17.33;47.07;101496.28;4964704;28;99373;-73
2021/08/13 04:43:51;;;;;;;1999.90;999.90;;;;;;;17.31;47.32;101498.94;5000435;28;98847;-73
2021/08/13 04:46:19;;;;;;;1999.90;999.90;;;;;;;17.32;47.46;101497.16;4982607;28;96910;-73
2021/08/13 04:48:53;;;;;;;1999.90;999.90;;;;;;;17.33;47.46;101490.91;5000099;28;97318;-73
2021/08/13 04:51:23;;;;;;;1999.90;999.90;;;;;;;17.34;47.55;101496.28;4983314;28;100500;-73
2021/08/13 04:53:51;;;;;;;1999.90;999.90;;;;;;;17.33;47.58;101491.78;4981665;28;99812;-74
2021/08/13 04:56:19;;;;;;;1999.90;999.90;;;;;;;17.31;47.39;101496.25;4981004;28;98721;-73
2021/08/13 04:58:47;;;;;;;1999.90;999.90;;;;;;;17.31;47.34;101503.47;4980629;28;96985;-74
2021/08/13 05:01:28;;;;;;;1999.90;999.90;;;;;;;17.30;47.33;101491.78;4979173;28;98923;-74
2021/08/13 05:03:58;;;;;;;1999.90;999.90;;;;;;;17.30;47.17;101493.56;4998320;28;97571;-73
2021/08/13 05:06:26;;;;;;;1999.90;999.90;;;;;;;17.31;47.32;101493.56;4980213;28;98202;-73
2021/08/13 05:08:54;;;;;;;1999.90;999.90;;;;;;;17.33;47.67;101488.22;4997299;28;97008;-73
2021/08/13 05:11:22;;;;;;;1999.90;999.90;;;;;;;17.35;47.60;101494.47;4999368;28;97968;-73
2021/08/13 05:13:51;;;;;;;1999.90;999.90;;;;;;;17.35;47.75;101489.09;4982023;28;97535;-74
2021/08/13 05:16:19;;;;;;;1999.90;999.90;;;;;;;17.37;47.43;101498.09;4998638;28;99165;-73
2021/08/13 05:18:48;;;;;;;1999.90;999.90;;;;;;;17.42;47.30;101499.06;4981366;28;97817;-73
2021/08/13 05:21:17;;;;;;;1999.90;999.90;;;;;;;17.45;47.06;101501.75;4983476;28;97185;-73
2021/08/13 05:23:45;;;;;;;1999.90;999.90;;;;;;;17.46;47.13;101488.31;4981690;28;97009;-73
2021/08/13 05:26:13;;;;;;;1999.90;999.90;;;;;;;17.48;47.10;101477.53;4980364;28;97423;-73
2021/08/13 05:28:41;;;;;;;1999.90;999.90;;;;;;;17.50;47.10;101479.34;5000639;28;97241;-73
2021/08/13 05:31:12;;;;;;;1999.90;999.90;;;;;;;17.53;47.28;101482.03;4998151;28;99978;-74
2021/08/13 05:33:39;;;;;;;1999.90;999.90;;;;;;;17.55;47.36;101482.03;4984094;28;99326;-73
2021/08/13 05:36:08;;;;;;;1999.90;999.90;;;;;;;17.57;47.59;101478.47;4997073;28;97638;-72
2021/08/13 05:38:37;;;;;;;1999.90;999.90;;;;;;;17.61;47.91;101476.69;4984558;28;96811;-73
2021/08/13 05:41:04;;;;;;;1999.90;999.90;;;;;;;17.63;48.00;101482.97;4982487;28;98861;-73
2021/08/13 05:43:32;;;;;;;1999.90;999.90;;;;;;;17.64;47.74;101495.53;4996997;28;98915;-74
2021/08/13 05:46:01;;;;;;;1999.90;999.90;;;;;;;17.64;47.46;101493.75;4981861;28;97142;-75
2021/08/13 05:48:29;;;;;;;1999.90;999.90;;;;;;;17.64;47.33;101490.16;4998756;28;96952;-75
2021/08/13 05:50:57;;;;;;;1999.90;999.90;;;;;;;17.65;47.34;101487.50;4965035;28;99443;-75
2021/08/13 05:53:26;;;;;;;1999.90;999.90;;;;;;;17.70;47.18;101487.47;4981296;28;98480;-75
2021/08/13 05:55:56;;;;;;;1999.90;999.90;;;;;;;17.72;47.42;101488.38;4962721;28;97330;-75
2021/08/13 05:58:23;;;;;;;1999.90;999.90;;;;;;;17.79;47.19;101488.41;4965184;28;97103;-75
2021/08/13 06:00:53;;;;;;;1999.90;999.90;;;;;;;17.83;47.04;101494.72;4965204;28;101915;-75
2021/08/13 06:03:21;;;;;;;1999.90;999.90;;;;;;;17.87;46.82;101491.13;4963500;28;99579;-75
2021/08/13 06:05:51;;;;;;;1999.90;999.90;;;;;;;17.91;46.57;101492.94;4966533;28;97130;-75
2021/08/13 06:08:20;;;;;;;1999.90;999.90;;;;;;;17.95;46.54;101492.94;4980843;28;97024;-76
2021/08/13 06:10:49;;;;;;;1999.90;999.90;;;;;;;17.99;46.71;101493.84;4985395;28;100662;-75
2021/08/13 06:13:19;;;;;;;1999.90;999.90;;;;;;;18.03;46.50;101499.25;4968076;28;99160;-74
2021/08/13 06:15:49;;;;;;;1999.90;999.90;;;;;;;18.07;46.40;101499.28;4983816;28;96812;-75
2021/08/13 06:18:17;;;;;;;1999.90;999.90;;;;;;;18.12;46.58;101497.50;4967918;28;97492;-76
2021/08/13 06:20:44;;;;;;;1999.90;999.90;;;;;;;18.16;46.38;101496.59;4968008;28;99362;-75
2021/08/13 06:23:20;;;;;;;1999.90;999.90;;;;;;;18.20;46.42;101498.41;4967985;28;100769;-75
2021/08/13 06:25:49;;;;;;;1999.90;999.90;;;;;;;18.24;46.16;101503.78;4966673;28;97742;-76
2021/08/13 06:28:19;;;;;;;1999.90;999.90;;;;;;;18.27;46.41;101502.91;4984606;28;97236;-74
2021/08/13 06:30:48;;;;;;;1999.90;999.90;;;;;;;18.30;46.18;101493.03;4981743;28;100214;-75
2021/08/13 06:33:18;;;;;;;1999.90;999.90;;;;;;;18.35;46.25;101495.75;4967103;28;99518;-76
2021/08/13 06:35:45;;;;;;;1999.90;999.90;;;;;;;18.39;45.86;101489.41;4983010;28;98311;-75
2021/08/13 06:38:13;;;;;;;1999.90;999.90;;;;;;;18.43;45.89;101494.81;4984376;28;96839;-76
2021/08/13 06:40:43;;;;;;;1999.90;999.90;;;;;;;18.48;45.69;101492.13;4983187;28;97869;-76
2021/08/13 06:43:14;;;;;;;1999.90;999.90;;;;;;;18.51;45.44;101487.66;4965960;28;99785;-76
2021/08/13 06:45:51;;;;;;;1999.90;999.90;;;;;;;18.56;45.36;101493.03;4968728;28;96983;-74
2021/08/13 06:48:25;;;;;;;1999.90;999.90;;;;;;;18.60;45.60;101486.75;4981418;28;98324;-73
2021/08/13 06:50:52;;;;;;;1999.90;999.90;;;;;;;18.64;45.47;101491.25;4980608;28;101122;-74
2021/08/13 06:53:20;;;;;;;1999.90;999.90;;;;;;;18.67;45.52;101488.53;5001068;28;97061;-73
2021/08/13 06:55:48;;;;;;;1999.90;999.90;;;;;;;18.72;45.29;101497.53;4982988;28;97551;-73
2021/08/13 06:58:17;;;;;;;1999.90;999.90;;;;;;;18.78;45.26;101497.53;4985744;28;96948;-74
2021/08/13 07:00:45;;;;;;;1999.90;999.90;;;;;;;18.81;45.32;101506.53;4985787;28;99209;-74
2021/08/13 07:03:14;;;;;;;1999.90;999.90;;;;;;;18.87;45.04;101502.91;4997958;28;98268;-74
2021/08/13 07:05:42;;;;;;;1999.90;999.90;;;;;;;18.89;45.21;101503.81;4999848;28;97295;-73
2021/08/13 07:08:12;;;;;;;1999.90;999.90;;;;;;;18.92;44.59;101502.00;4982449;28;97801;-76
2021/08/13 07:10:47;;;;;;;1999.90;999.90;;;;;;;18.97;44.97;101501.97;4999678;28;97774;-76
2021/08/13 07:13:15;;;;;;;1999.90;999.90;;;;;;;19.01;44.40;101495.69;4965980;28;100714;-76
2021/08/13 07:15:43;;;;;;;1999.90;999.90;;;;;;;19.06;44.28;101493.00;4983416;28;98468;-76
2021/08/13 07:18:11;;;;;;;1999.90;999.90;;;;;;;19.08;44.25;101505.56;4966844;28;97486;-76
2021/08/13 07:20:40;;;;;;;1999.90;999.90;;;;;;;19.09;44.12;101491.19;4965916;28;99560;-75
2021/08/13 07:23:10;;;;;;;1999.90;999.90;;;;;;;19.12;44.20;101501.97;4965242;28;97916;-75
2021/08/13 07:25:40;;;;;;;1999.90;999.90;;;;;;;19.14;43.86;101499.25;4982614;28;97790;-75
2021/08/13 07:28:10;;;;;;;1999.90;999.90;;;;;;;19.11;43.54;101502.88;4963635;28;97734;-76
2021/08/13 07:30:44;;;;;;;1999.90;999.90;;;;;;;19.09;43.76;101512.78;4981535;28;99352;-76
2021/08/13 07:33:12;;;;;;;1999.90;999.90;;;;;;;19.12;43.56;101512.75;4965972;28;97617;-77
2021/08/13 07:35:45;;;;;;;1999.90;999.90;;;;;;;19.16;43.66;101516.34;4982551;28;97237;-76
2021/08/13 07:38:14;;;;;;;1999.90;999.90;;;;;;;19.25;43.82;101510.91;4963855;28;97951;-76
2021/08/13 07:40:42;;;;;;;1999.90;999.90;;;;;;;19.28;43.66;101509.09;4959853;28;98371;-76
2021/08/13 07:43:10;;;;;;;1999.90;999.90;;;;;;;19.33;43.52;101504.66;4986177;28;97850;-77
2021/08/13 07:45:37;;;;;;;1999.90;999.90;;;;;;;19.41;43.34;101518.13;4985429;28;97050;-77
2021/08/13 07:48:06;;;;;;;1999.90;999.90;;;;;;;19.46;43.55;101510.91;4983791;28;98391;-77
2021/08/13 07:50:34;;;;;;;1999.90;999.90;;;;;;;19.52;43.24;101509.06;4984814;28;97891;-77
2021/08/13 07:53:04;;;;;;;1999.90;999.90;;;;;;;19.57;43.58;101509.03;4984369;28;100514;-76
2021/08/13 07:55:32;;;;;;;1999.90;999.90;;;;;;;19.60;43.49;101501.81;4984074;28;97104;-77
2021/08/13 07:58:01;;;;;;;1999.90;999.90;;;;;;;19.65;43.23;101505.41;4984280;28;98112;-77
2021/08/13 08:00:29;;;;;;;1999.90;999.90;;;;;;;19.70;43.25;101511.66;4965607;28;101099;-76
2021/08/13 08:02:56;;;;;;;1999.90;999.90;;;;;;;19.74;43.21;101510.75;4983225;28;99727;-75
2021/08/13 08:05:24;;;;;;;1999.90;999.90;;;;;;;19.78;42.96;101515.25;4983831;28;97151;-74
2021/08/13 08:07:52;;;;;;;1999.90;999.90;;;;;;;19.83;42.78;101520.59;4983941;28;98422;-75
2021/08/13 08:10:22;;;;;;;1999.90;999.90;;;;;;;19.88;42.98;101516.09;4983367;28;98044;-74
2021/08/13 08:12:49;;;;;;;1999.90;999.90;;;;;;;19.92;42.83;101525.94;4982483;28;99107;-75
2021/08/13 08:15:17;;;;;;;1999.90;999.90;;;;;;;19.97;42.21;101521.47;4985012;28;97915;-74
2021/08/13 08:17:45;;;;;;;1999.90;999.90;;;;;;;20.03;41.96;101524.13;4981215;28;98049;-75
2021/08/13 08:20:13;;;;;;;1999.90;999.90;;;;;;;20.11;41.90;101532.19;4980226;28;100975;-74
2021/08/13 08:22:41;;;;;;;1999.90;999.90;;;;;;;20.13;41.29;101516.88;4980634;28;99514;-75
2021/08/13 08:25:10;;;;;;;1999.90;999.90;;;;;;;20.18;41.67;101520.41;4978806;28;97711;-76
2021/08/13 08:27:39;;;;;;;1999.90;999.90;;;;;;;20.25;41.39;101527.63;4972715;28;97990;-76
2021/08/13 08:30:08;;;;;;;1999.90;999.90;;;;;;;20.30;41.12;101528.47;4982870;28;98739;-77
2021/08/13 08:32:35;;;;;;;1999.90;999.90;;;;;;;20.36;41.31;101533.81;4980793;28;100514;-76
2021/08/13 08:35:04;;;;;;;1999.90;999.90;;;;;;;20.43;41.08;101527.47;4979755;28;97750;-76
2021/08/13 08:37:31;;;;;;;1999.90;999.90;;;;;;;20.50;40.61;101523.81;4972761;28;97586;-75
2021/08/13 08:39:59;;;;;;;1999.90;999.90;;;;;;;20.58;39.84;101524.66;4984084;28;98197;-75
2021/08/13 08:42:28;;;;;;;1999.90;999.90;;;;;;;20.64;40.11;101524.63;4981909;28;99263;-75
2021/08/13 08:44:57;;;;;;;1999.90;999.90;;;;;;;20.70;40.10;101527.28;4981500;28;97716;-76
2021/08/13 08:47:25;;;;;;;1999.90;999.90;;;;;;;20.75;39.87;101517.31;4976567;28;98233;-75
2021/08/13 08:49:56;;;;;;;1999.90;999.90;;;;;;;20.81;39.99;101522.66;4979163;28;98095;-75
2021/08/13 08:52:25;;;;;;;1999.90;999.90;;;;;;;20.87;39.21;101530.72;4979798;28;100608;-75
2021/08/13 08:54:53;;;;;;;1999.90;999.90;;;;;;;20.89;39.15;101529.78;4983818;28;96881;-74
2021/08/13 08:57:28;;;;;;;1999.90;999.90;;;;;;;20.93;38.71;101515.31;4982503;28;97263;-75
2021/08/13 08:59:58;;;;;;;1999.90;999.90;;;;;;;20.98;38.60;101510.75;4978899;28;97700;-73
2021/08/13 09:02:26;;;;;;;1999.90;999.90;;;;;;;21.06;38.72;101516.09;4977473;28;98839;-74
2021/08/13 09:04:54;;;;;;;1999.90;999.90;;;;;;;21.09;38.82;101510.63;4981160;28;98961;-73
2021/08/13 09:07:21;;;;;;;1999.90;999.90;;;;;;;21.14;38.68;101513.34;4981593;28;97921;-73
2021/08/13 09:09:49;;;;;;;1999.90;999.90;;;;;;;21.21;38.74;101515.06;4980551;28;101016;-73
2021/08/13 09:12:17;;;;;;;1999.90;999.90;;;;;;;21.25;38.24;101517.69;4981278;28;101020;-73
2021/08/13 09:14:44;;;;;;;1999.90;999.90;;;;;;;21.31;37.44;101523.06;4983455;28;98236;-73
2021/08/13 09:17:14;;;;;;;1999.90;999.90;;;;;;;21.34;37.28;101525.72;4982211;28;96876;-73
2021/08/13 09:19:44;;;;;;;1999.90;999.90;;;;;;;21.38;37.30;101524.78;4983461;28;97823;-73
2021/08/13 09:22:13;;;;;;;1999.90;999.90;;;;;;;21.45;37.59;101520.19;4981152;28;99473;-73
2021/08/13 09:24:42;;;;;;;1999.90;999.90;;;;;;;21.49;37.21;101521.97;4983367;28;98030;-73
2021/08/13 09:27:18;;;;;;;1999.90;999.90;;;;;;;21.53;36.79;101518.28;4982687;28;97405;-73
2021/08/13 09:30:22;;;;;;;1999.90;999.90;;;;;;;21.61;36.67;101527.22;4982487;28;98806;-73
2021/08/13 09:33:00;;;;;;;1999.90;999.90;;;;;;;21.65;36.64;101523.56;4998773;28;99483;-73
2021/08/13 09:35:33;;;;;;;1999.90;999.90;;;;;;;21.70;36.29;101528.03;4982351;28;97668;-73
2021/08/13 09:38:02;;;;;;;1999.90;999.90;;;;;;;21.74;36.08;101524.34;4982685;28;98214;-73
2021/08/13 09:40:37;;;;;;;1999.90;999.90;;;;;;;21.78;35.80;101520.69;4981434;28;100398;-73
2021/08/13 09:43:05;;;;;;;1999.90;999.90;;;;;;;21.83;35.70;101523.34;4984088;28;99452;-73
2021/08/13 09:45:33;;;;;;;1999.90;999.90;;;;;;;21.86;34.65;101517.88;4985907;28;97802;-73
2021/08/13 09:48:03;;;;;;;1999.90;999.90;;;;;;;21.90;34.39;101515.13;4970102;28;98105;-73
2021/08/13 09:50:37;;;;;;;1999.90;999.90;;;;;;;21.94;33.70;101519.56;4985291;28;98820;-77
2021/08/13 09:53:10;;;;;;;1999.90;999.90;;;;;;;22.01;33.42;101516.75;4987392;28;100627;-76
2021/08/13 09:55:39;;;;;;;1999.90;999.90;;;;;;;22.07;33.70;101523.00;5005358;28;97344;-77
2021/08/13 09:58:09;;;;;;;1999.90;999.90;;;;;;;22.14;33.51;101516.56;4971041;28;97248;-77
2021/08/13 10:00:44;;;;;;;1999.90;999.90;;;;;;;22.22;33.52;101528.19;4987147;28;100408;-75
2021/08/13 10:03:14;;;;;;;1999.90;999.90;;;;;;;22.30;33.37;101530.81;4998762;28;98686;-76
2021/08/13 10:05:42;;;;;;;1999.90;999.90;;;;;;;22.36;32.77;101520.78;4987756;28;97480;-74
2021/08/13 10:08:11;;;;;;;1999.90;999.90;;;;;;;22.42;32.26;101519.78;5001448;28;97837;-74
2021/08/13 10:10:40;;;;;;;1999.90;999.90;;;;;;;22.47;32.29;101516.09;4969336;28;99624;-74
2021/08/13 10:13:12;;;;;;;1999.90;999.90;;;;;;;22.53;32.01;101509.66;5001827;28;98765;-74
2021/08/13 10:15:55;;;;;;;1999.90;999.90;;;;;;;22.53;31.79;101507.81;5001228;28;96935;-74
2021/08/13 10:18:31;;;;;;;1999.90;999.90;;;;;;;22.58;31.90;101505.91;4968964;28;98136;-74
2021/08/13 10:21:02;;;;;;;1999.90;999.90;;;;;;;22.61;31.80;101504.97;4984626;28;99125;-74
2021/08/13 10:23:31;;;;;;;1999.90;999.90;;;;;;;22.64;31.97;101503.09;4968351;28;101282;-74
2021/08/13 10:26:03;;;;;;;1999.90;999.90;;;;;;;22.70;32.08;101504.81;4986246;28;97489;-74
2021/08/13 10:28:35;;;;;;;1999.90;999.90;;;;;;;22.75;32.41;101511.06;4987541;28;96930;-74
2021/08/13 10:31:11;;;;;;;1999.90;999.90;;;;;;;22.82;32.11;101499.22;5002963;28;97667;-73
2021/08/13 10:33:50;;;;;;;1999.90;999.90;;;;;;;22.89;32.25;101488.19;5000566;28;99817;-74
2021/08/13 10:36:19;;;;;;;1999.90;999.90;;;;;;;22.91;32.29;101490.91;4985091;28;98316;-74
2021/08/13 10:38:51;;;;;;;1999.90;999.90;;;;;;;22.96;32.53;101488.09;5002121;28;97647;-74
2021/08/13 10:41:24;;;;;;;1999.90;999.90;;;;;;;23.00;32.54;101488.03;4969352;28;98276;-74
2021/08/13 10:43:58;;;;;;;1999.90;999.90;;;;;;;23.06;32.72;101487.88;4968145;28;99397;-74
2021/08/13 10:46:30;;;;;;;1999.90;999.90;;;;;;;23.12;32.71;101482.34;5002257;28;98002;-74
2021/08/13 10:49:00;;;;;;;1999.90;999.90;;;;;;;23.17;32.45;101490.41;4985563;28;97618;-74
2021/08/13 10:51:33;;;;;;;1999.90;999.90;;;;;;;23.16;32.39;101475.94;4968741;28;99219;-74
2021/08/13 10:54:08;;;;;;;1999.90;999.90;;;;;;;23.23;32.71;101477.59;4969503;28;99690;-74
2021/08/13 10:56:40;;;;;;;1999.90;999.90;;;;;;;23.28;32.49;101467.53;5002343;28;98155;-74